sensor_id;sensor_type;location;lat;lon;timestamp;P1;durP1;ratioP1;P2;durP2;ratioP2
76962;SDS011;65902;51.452;7.198;2023-04-29T00:00:35;27.30;;;15.32;;
76962;SDS011;65902;51.452;7.198;2023-04-29T00:01:36;29.30;;;17.20;;
76962;SDS011;65902;51.452;7.198;2023-04-29T00:02:39;31.13;;;19.05;;
76962;SDS011;65902;51.452;7.198;2023-04-29T00:03:42;26.45;;;17.08;;
76962;SDS011;65902;51.452;7.198;2023-04-29T00:04:43;28.33;;;17.52;;
76962;SDS011;65902;51.452;7.198;2023-04-29T00:05:44;29.33;;;18.33;;
76962;SDS011;65902;51.452;7.198;2023-04-29T00:06:45;30.15;;;18.10;;
76962;SDS011;65902;51.452;7.198;2023-04-29T00:07:46;32.15;;;19.25;;
76962;SDS011;65902;51.452;7.198;2023-04-29T00:08:47;29.95;;;17.60;;
76962;SDS011;65902;51.452;7.198;2023-04-29T00:09:47;27.15;;;15.70;;
76962;SDS011;65902;51.452;7.198;2023-04-29T00:10:48;29.75;;;16.45;;
76962;SDS011;65902;51.452;7.198;2023-04-29T00:11:49;27.38;;;16.50;;
76962;SDS011;65902;51.452;7.198;2023-04-29T00:12:51;28.50;;;15.60;;
76962;SDS011;65902;51.452;7.198;2023-04-29T00:13:51;30.92;;;17.60;;
76962;SDS011;65902;51.452;7.198;2023-04-29T00:14:52;29.92;;;18.75;;
76962;SDS011;65902;51.452;7.198;2023-04-29T00:15:56;31.42;;;17.08;;
76962;SDS011;65902;51.452;7.198;2023-04-29T00:17:00;29.20;;;17.08;;
76962;SDS011;65902;51.452;7.198;2023-04-29T00:18:03;28.08;;;18.10;;
76962;SDS011;65902;51.452;7.198;2023-04-29T00:19:06;29.63;;;17.88;;
76962;SDS011;65902;51.452;7.198;2023-04-29T00:20:07;35.13;;;18.90;;
76962;SDS011;65902;51.452;7.198;2023-04-29T00:21:09;30.30;;;16.27;;
76962;SDS011;65902;51.452;7.198;2023-04-29T00:22:09;32.40;;;17.85;;
76962;SDS011;65902;51.452;7.198;2023-04-29T00:23:10;29.40;;;17.58;;
76962;SDS011;65902;51.452;7.198;2023-04-29T00:24:11;35.97;;;20.00;;
76962;SDS011;65902;51.452;7.198;2023-04-29T00:25:12;35.40;;;18.08;;
76962;SDS011;65902;51.452;7.198;2023-04-29T00:26:16;35.22;;;18.50;;
76962;SDS011;65902;51.452;7.198;2023-04-29T00:27:17;33.03;;;19.20;;
76962;SDS011;65902;51.452;7.198;2023-04-29T00:28:20;29.52;;;18.05;;
76962;SDS011;65902;51.452;7.198;2023-04-29T00:29:21;30.33;;;18.92;;
76962;SDS011;65902;51.452;7.198;2023-04-29T00:30:23;29.77;;;18.35;;
76962;SDS011;65902;51.452;7.198;2023-04-29T00:31:26;29.20;;;17.75;;
76962;SDS011;65902;51.452;7.198;2023-04-29T00:33:30;33.40;;;17.08;;
76962;SDS011;65902;51.452;7.198;2023-04-29T00:34:30;31.30;;;17.90;;
76962;SDS011;65902;51.452;7.198;2023-04-29T00:35:31;32.20;;;18.80;;
76962;SDS011;65902;51.452;7.198;2023-04-29T00:36:32;30.02;;;17.73;;
76962;SDS011;65902;51.452;7.198;2023-04-29T00:37:35;31.65;;;18.58;;
76962;SDS011;65902;51.452;7.198;2023-04-29T00:38:36;34.53;;;19.50;;
76962;SDS011;65902;51.452;7.198;2023-04-29T00:39:39;32.22;;;17.52;;
76962;SDS011;65902;51.452;7.198;2023-04-29T00:40:39;26.85;;;15.02;;
76962;SDS011;65902;51.452;7.198;2023-04-29T00:41:40;30.25;;;18.17;;
76962;SDS011;65902;51.452;7.198;2023-04-29T00:42:42;34.78;;;17.95;;
76962;SDS011;65902;51.452;7.198;2023-04-29T00:43:42;30.20;;;17.95;;
76962;SDS011;65902;51.452;7.198;2023-04-29T00:44:43;34.17;;;20.15;;
76962;SDS011;65902;51.452;7.198;2023-04-29T00:45:43;29.88;;;17.73;;
76962;SDS011;65902;51.452;7.198;2023-04-29T00:46:46;33.35;;;19.38;;
76962;SDS011;65902;51.452;7.198;2023-04-29T00:47:46;30.23;;;19.13;;
76962;SDS011;65902;51.452;7.198;2023-04-29T00:48:46;32.38;;;17.92;;
76962;SDS011;65902;51.452;7.198;2023-04-29T00:49:47;29.35;;;15.68;;
76962;SDS011;65902;51.452;7.198;2023-04-29T00:50:48;33.97;;;19.70;;
76962;SDS011;65902;51.452;7.198;2023-04-29T00:51:50;34.58;;;20.58;;
76962;SDS011;65902;51.452;7.198;2023-04-29T00:52:51;27.45;;;15.02;;
76962;SDS011;65902;51.452;7.198;2023-04-29T00:53:54;31.27;;;18.50;;
76962;SDS011;65902;51.452;7.198;2023-04-29T00:54:58;33.72;;;18.15;;
76962;SDS011;65902;51.452;7.198;2023-04-29T00:56:03;32.10;;;18.45;;
76962;SDS011;65902;51.452;7.198;2023-04-29T00:57:04;36.10;;;18.02;;
76962;SDS011;65902;51.452;7.198;2023-04-29T00:58:05;35.55;;;19.48;;
76962;SDS011;65902;51.452;7.198;2023-04-29T00:59:06;34.58;;;18.58;;
76962;SDS011;65902;51.452;7.198;2023-04-29T01:00:09;37.95;;;20.05;;
76962;SDS011;65902;51.452;7.198;2023-04-29T01:01:14;33.05;;;18.20;;
76962;SDS011;65902;51.452;7.198;2023-04-29T01:02:15;35.72;;;20.10;;
76962;SDS011;65902;51.452;7.198;2023-04-29T01:03:16;38.30;;;21.05;;
76962;SDS011;65902;51.452;7.198;2023-04-29T01:04:20;37.65;;;20.10;;
76962;SDS011;65902;51.452;7.198;2023-04-29T01:05:24;35.90;;;18.75;;
76962;SDS011;65902;51.452;7.198;2023-04-29T01:10:13;39.00;;;19.08;;
76962;SDS011;65902;51.452;7.198;2023-04-29T01:11:14;40.58;;;21.55;;
76962;SDS011;65902;51.452;7.198;2023-04-29T01:13:36;39.05;;;19.27;;
76962;SDS011;65902;51.452;7.198;2023-04-29T01:14:42;39.50;;;21.55;;
76962;SDS011;65902;51.452;7.198;2023-04-29T01:17:09;41.53;;;20.08;;
76962;SDS011;65902;51.452;7.198;2023-04-29T01:18:28;42.72;;;21.02;;
76962;SDS011;65902;51.452;7.198;2023-04-29T01:20:49;48.17;;;22.60;;
76962;SDS011;65902;51.452;7.198;2023-04-29T01:21:52;49.20;;;23.48;;
76962;SDS011;65902;51.452;7.198;2023-04-29T01:22:53;46.55;;;21.80;;
76962;SDS011;65902;51.452;7.198;2023-04-29T01:23:53;52.10;;;23.80;;
76962;SDS011;65902;51.452;7.198;2023-04-29T01:24:57;60.13;;;26.42;;
76962;SDS011;65902;51.452;7.198;2023-04-29T01:26:00;49.25;;;23.23;;
76962;SDS011;65902;51.452;7.198;2023-04-29T01:27:04;56.80;;;24.17;;
76962;SDS011;65902;51.452;7.198;2023-04-29T01:29:33;59.13;;;27.10;;
76962;SDS011;65902;51.452;7.198;2023-04-29T01:30:45;59.22;;;25.08;;
76962;SDS011;65902;51.452;7.198;2023-04-29T01:31:57;64.22;;;26.90;;
76962;SDS011;65902;51.452;7.198;2023-04-29T01:33:09;55.90;;;27.00;;
76962;SDS011;65902;51.452;7.198;2023-04-29T01:34:20;56.38;;;25.35;;
76962;SDS011;65902;51.452;7.198;2023-04-29T01:37:40;55.70;;;23.15;;
76962;SDS011;65902;51.452;7.198;2023-04-29T01:39:06;55.70;;;26.48;;
76962;SDS011;65902;51.452;7.198;2023-04-29T01:41:15;59.30;;;26.45;;
76962;SDS011;65902;51.452;7.198;2023-04-29T01:42:29;58.10;;;25.38;;
76962;SDS011;65902;51.452;7.198;2023-04-29T01:43:33;54.80;;;25.42;;
76962;SDS011;65902;51.452;7.198;2023-04-29T01:44:35;58.35;;;25.10;;
76962;SDS011;65902;51.452;7.198;2023-04-29T01:45:39;54.70;;;25.58;;
76962;SDS011;65902;51.452;7.198;2023-04-29T01:46:47;56.28;;;25.98;;
76962;SDS011;65902;51.452;7.198;2023-04-29T01:47:49;54.40;;;28.80;;
76962;SDS011;65902;51.452;7.198;2023-04-29T01:48:52;66.18;;;28.70;;
76962;SDS011;65902;51.452;7.198;2023-04-29T01:49:56;57.63;;;24.90;;
76962;SDS011;65902;51.452;7.198;2023-04-29T01:50:59;61.72;;;27.50;;
76962;SDS011;65902;51.452;7.198;2023-04-29T01:52:00;66.45;;;28.30;;
76962;SDS011;65902;51.452;7.198;2023-04-29T01:53:04;65.85;;;27.38;;
76962;SDS011;65902;51.452;7.198;2023-04-29T01:54:07;66.95;;;30.33;;
76962;SDS011;65902;51.452;7.198;2023-04-29T01:55:08;59.72;;;27.17;;
76962;SDS011;65902;51.452;7.198;2023-04-29T01:56:10;70.95;;;28.13;;
76962;SDS011;65902;51.452;7.198;2023-04-29T01:57:15;55.83;;;27.02;;
76962;SDS011;65902;51.452;7.198;2023-04-29T01:58:18;66.22;;;28.00;;
76962;SDS011;65902;51.452;7.198;2023-04-29T01:59:19;72.82;;;29.58;;
76962;SDS011;65902;51.452;7.198;2023-04-29T02:00:21;75.00;;;31.45;;
76962;SDS011;65902;51.452;7.198;2023-04-29T02:01:24;54.15;;;25.10;;
76962;SDS011;65902;51.452;7.198;2023-04-29T02:02:25;65.55;;;28.63;;
76962;SDS011;65902;51.452;7.198;2023-04-29T02:03:31;69.05;;;28.48;;
76962;SDS011;65902;51.452;7.198;2023-04-29T02:04:32;76.40;;;30.38;;
76962;SDS011;65902;51.452;7.198;2023-04-29T02:05:33;64.38;;;30.75;;
76962;SDS011;65902;51.452;7.198;2023-04-29T02:06:37;62.17;;;25.40;;
76962;SDS011;65902;51.452;7.198;2023-04-29T02:07:40;67.38;;;29.77;;
76962;SDS011;65902;51.452;7.198;2023-04-29T02:08:44;72.05;;;29.23;;
76962;SDS011;65902;51.452;7.198;2023-04-29T02:09:44;63.42;;;26.52;;
76962;SDS011;65902;51.452;7.198;2023-04-29T02:10:52;65.60;;;27.35;;
76962;SDS011;65902;51.452;7.198;2023-04-29T02:11:53;70.35;;;30.25;;
76962;SDS011;65902;51.452;7.198;2023-04-29T02:12:54;65.40;;;28.20;;
76962;SDS011;65902;51.452;7.198;2023-04-29T02:13:57;64.82;;;27.98;;
76962;SDS011;65902;51.452;7.198;2023-04-29T02:14:59;66.28;;;29.88;;
76962;SDS011;65902;51.452;7.198;2023-04-29T02:16:09;62.80;;;27.70;;
76962;SDS011;65902;51.452;7.198;2023-04-29T02:18:10;54.58;;;24.38;;
76962;SDS011;65902;51.452;7.198;2023-04-29T02:19:11;66.35;;;27.67;;
76962;SDS011;65902;51.452;7.198;2023-04-29T02:20:12;64.35;;;28.13;;
76962;SDS011;65902;51.452;7.198;2023-04-29T02:21:13;74.50;;;29.02;;
76962;SDS011;65902;51.452;7.198;2023-04-29T02:22:14;76.68;;;30.70;;
76962;SDS011;65902;51.452;7.198;2023-04-29T02:23:15;80.20;;;31.00;;
76962;SDS011;65902;51.452;7.198;2023-04-29T02:24:15;74.03;;;29.33;;
76962;SDS011;65902;51.452;7.198;2023-04-29T02:25:16;76.22;;;32.22;;
76962;SDS011;65902;51.452;7.198;2023-04-29T02:26:19;70.75;;;29.08;;
76962;SDS011;65902;51.452;7.198;2023-04-29T02:27:23;73.03;;;28.75;;
76962;SDS011;65902;51.452;7.198;2023-04-29T02:28:23;74.30;;;31.33;;
76962;SDS011;65902;51.452;7.198;2023-04-29T02:29:24;65.95;;;29.20;;
76962;SDS011;65902;51.452;7.198;2023-04-29T02:30:26;76.40;;;33.03;;
76962;SDS011;65902;51.452;7.198;2023-04-29T02:31:29;72.93;;;28.88;;
76962;SDS011;65902;51.452;7.198;2023-04-29T02:32:30;74.60;;;30.17;;
76962;SDS011;65902;51.452;7.198;2023-04-29T02:33:31;75.68;;;30.50;;
76962;SDS011;65902;51.452;7.198;2023-04-29T02:34:32;64.55;;;27.73;;
76962;SDS011;65902;51.452;7.198;2023-04-29T02:35:34;61.60;;;27.05;;
76962;SDS011;65902;51.452;7.198;2023-04-29T02:36:37;62.15;;;29.35;;
76962;SDS011;65902;51.452;7.198;2023-04-29T02:37:37;62.80;;;27.65;;
76962;SDS011;65902;51.452;7.198;2023-04-29T02:38:38;67.18;;;29.20;;
76962;SDS011;65902;51.452;7.198;2023-04-29T02:39:39;69.13;;;30.60;;
76962;SDS011;65902;51.452;7.198;2023-04-29T02:40:45;54.85;;;24.88;;
76962;SDS011;65902;51.452;7.198;2023-04-29T02:41:46;71.75;;;27.88;;
76962;SDS011;65902;51.452;7.198;2023-04-29T02:42:46;69.38;;;27.98;;
76962;SDS011;65902;51.452;7.198;2023-04-29T02:43:49;67.43;;;27.25;;
76962;SDS011;65902;51.452;7.198;2023-04-29T02:44:53;65.10;;;28.25;;
76962;SDS011;65902;51.452;7.198;2023-04-29T02:45:54;61.72;;;27.90;;
76962;SDS011;65902;51.452;7.198;2023-04-29T02:46:55;65.30;;;29.00;;
76962;SDS011;65902;51.452;7.198;2023-04-29T02:47:57;66.97;;;28.10;;
76962;SDS011;65902;51.452;7.198;2023-04-29T02:48:58;64.72;;;28.20;;
76962;SDS011;65902;51.452;7.198;2023-04-29T02:49:59;71.88;;;31.88;;
76962;SDS011;65902;51.452;7.198;2023-04-29T02:50:59;63.47;;;30.48;;
76962;SDS011;65902;51.452;7.198;2023-04-29T02:52:00;66.25;;;28.95;;
76962;SDS011;65902;51.452;7.198;2023-04-29T02:54:06;62.80;;;28.00;;
76962;SDS011;65902;51.452;7.198;2023-04-29T02:56:09;56.15;;;24.48;;
76962;SDS011;65902;51.452;7.198;2023-04-29T02:57:12;57.97;;;26.50;;
76962;SDS011;65902;51.452;7.198;2023-04-29T02:58:15;54.70;;;27.27;;
76962;SDS011;65902;51.452;7.198;2023-04-29T02:59:18;63.70;;;28.30;;
76962;SDS011;65902;51.452;7.198;2023-04-29T03:00:19;56.95;;;24.85;;
76962;SDS011;65902;51.452;7.198;2023-04-29T03:01:20;51.35;;;24.00;;
76962;SDS011;65902;51.452;7.198;2023-04-29T03:03:24;50.45;;;22.20;;
76962;SDS011;65902;51.452;7.198;2023-04-29T03:04:27;50.28;;;22.83;;
76962;SDS011;65902;51.452;7.198;2023-04-29T03:05:32;49.25;;;22.25;;
76962;SDS011;65902;51.452;7.198;2023-04-29T03:06:34;51.78;;;21.55;;
76962;SDS011;65902;51.452;7.198;2023-04-29T03:07:35;50.47;;;22.80;;
76962;SDS011;65902;51.452;7.198;2023-04-29T03:08:38;44.60;;;21.00;;
76962;SDS011;65902;51.452;7.198;2023-04-29T03:09:41;43.88;;;21.88;;
76962;SDS011;65902;51.452;7.198;2023-04-29T03:10:44;47.58;;;20.95;;
76962;SDS011;65902;51.452;7.198;2023-04-29T03:11:47;45.05;;;21.30;;
76962;SDS011;65902;51.452;7.198;2023-04-29T03:12:48;43.72;;;21.10;;
76962;SDS011;65902;51.452;7.198;2023-04-29T03:13:51;44.22;;;18.90;;
76962;SDS011;65902;51.452;7.198;2023-04-29T03:14:52;41.22;;;21.08;;
76962;SDS011;65902;51.452;7.198;2023-04-29T03:15:53;43.85;;;20.38;;
76962;SDS011;65902;51.452;7.198;2023-04-29T03:16:53;47.10;;;22.75;;
76962;SDS011;65902;51.452;7.198;2023-04-29T03:17:57;49.35;;;23.17;;
76962;SDS011;65902;51.452;7.198;2023-04-29T03:19:01;44.67;;;21.85;;
76962;SDS011;65902;51.452;7.198;2023-04-29T03:20:02;43.30;;;20.75;;
76962;SDS011;65902;51.452;7.198;2023-04-29T03:21:05;41.58;;;21.27;;
76962;SDS011;65902;51.452;7.198;2023-04-29T03:22:08;43.10;;;20.08;;
76962;SDS011;65902;51.452;7.198;2023-04-29T03:23:11;42.03;;;19.70;;
76962;SDS011;65902;51.452;7.198;2023-04-29T03:24:11;39.13;;;21.13;;
76962;SDS011;65902;51.452;7.198;2023-04-29T03:25:17;40.42;;;20.73;;
76962;SDS011;65902;51.452;7.198;2023-04-29T03:26:18;37.13;;;19.60;;
76962;SDS011;65902;51.452;7.198;2023-04-29T03:27:23;43.88;;;20.67;;
76962;SDS011;65902;51.452;7.198;2023-04-29T03:28:24;44.67;;;21.25;;
76962;SDS011;65902;51.452;7.198;2023-04-29T03:29:27;38.65;;;20.08;;
76962;SDS011;65902;51.452;7.198;2023-04-29T03:30:30;40.65;;;20.08;;
76962;SDS011;65902;51.452;7.198;2023-04-29T03:31:31;38.13;;;17.67;;
76962;SDS011;65902;51.452;7.198;2023-04-29T03:32:33;41.30;;;21.70;;
76962;SDS011;65902;51.452;7.198;2023-04-29T03:34:37;37.05;;;17.58;;
76962;SDS011;65902;51.452;7.198;2023-04-29T03:35:37;34.13;;;17.50;;
76962;SDS011;65902;51.452;7.198;2023-04-29T03:36:39;41.33;;;22.90;;
76962;SDS011;65902;51.452;7.198;2023-04-29T03:37:40;41.63;;;19.75;;
76962;SDS011;65902;51.452;7.198;2023-04-29T03:38:43;37.08;;;20.15;;
76962;SDS011;65902;51.452;7.198;2023-04-29T03:39:44;40.33;;;19.08;;
76962;SDS011;65902;51.452;7.198;2023-04-29T03:40:45;42.13;;;19.67;;
76962;SDS011;65902;51.452;7.198;2023-04-29T03:41:48;39.35;;;17.88;;
76962;SDS011;65902;51.452;7.198;2023-04-29T03:42:49;40.00;;;20.10;;
76962;SDS011;65902;51.452;7.198;2023-04-29T03:43:53;37.90;;;18.48;;
76962;SDS011;65902;51.452;7.198;2023-04-29T03:44:54;42.72;;;22.13;;
76962;SDS011;65902;51.452;7.198;2023-04-29T03:45:55;41.05;;;19.55;;
76962;SDS011;65902;51.452;7.198;2023-04-29T03:46:58;42.13;;;18.13;;
76962;SDS011;65902;51.452;7.198;2023-04-29T03:48:59;35.63;;;18.48;;
76962;SDS011;65902;51.452;7.198;2023-04-29T03:50:00;34.08;;;18.38;;
76962;SDS011;65902;51.452;7.198;2023-04-29T03:52:09;33.10;;;18.73;;
76962;SDS011;65902;51.452;7.198;2023-04-29T03:53:12;35.97;;;17.55;;
76962;SDS011;65902;51.452;7.198;2023-04-29T03:54:15;36.28;;;18.55;;
76962;SDS011;65902;51.452;7.198;2023-04-29T03:55:16;39.72;;;18.33;;
76962;SDS011;65902;51.452;7.198;2023-04-29T03:56:17;37.10;;;18.05;;
76962;SDS011;65902;51.452;7.198;2023-04-29T03:57:20;36.20;;;18.98;;
76962;SDS011;65902;51.452;7.198;2023-04-29T03:58:23;37.88;;;17.95;;
76962;SDS011;65902;51.452;7.198;2023-04-29T03:59:24;37.28;;;19.52;;
76962;SDS011;65902;51.452;7.198;2023-04-29T04:00:25;41.13;;;18.88;;
76962;SDS011;65902;51.452;7.198;2023-04-29T04:01:26;36.50;;;20.10;;
76962;SDS011;65902;51.452;7.198;2023-04-29T04:03:30;33.67;;;18.20;;
76962;SDS011;65902;51.452;7.198;2023-04-29T04:04:32;35.28;;;18.48;;
76962;SDS011;65902;51.452;7.198;2023-04-29T04:05:37;35.85;;;17.65;;
76962;SDS011;65902;51.452;7.198;2023-04-29T04:06:37;35.53;;;19.27;;
76962;SDS011;65902;51.452;7.198;2023-04-29T04:07:38;38.58;;;19.80;;
76962;SDS011;65902;51.452;7.198;2023-04-29T04:08:39;33.75;;;17.38;;
76962;SDS011;65902;51.452;7.198;2023-04-29T04:09:40;35.53;;;18.20;;
76962;SDS011;65902;51.452;7.198;2023-04-29T04:10:43;35.38;;;18.48;;
76962;SDS011;65902;51.452;7.198;2023-04-29T04:11:44;40.80;;;22.48;;
76962;SDS011;65902;51.452;7.198;2023-04-29T04:12:45;35.00;;;19.05;;
76962;SDS011;65902;51.452;7.198;2023-04-29T04:13:47;39.40;;;21.25;;
76962;SDS011;65902;51.452;7.198;2023-04-29T04:14:49;44.03;;;18.42;;
76962;SDS011;65902;51.452;7.198;2023-04-29T04:15:50;41.88;;;19.90;;
76962;SDS011;65902;51.452;7.198;2023-04-29T04:16:56;36.70;;;19.30;;
76962;SDS011;65902;51.452;7.198;2023-04-29T04:17:57;39.15;;;18.38;;
76962;SDS011;65902;51.452;7.198;2023-04-29T04:19:00;36.10;;;20.08;;
76962;SDS011;65902;51.452;7.198;2023-04-29T04:20:06;38.35;;;18.73;;
76962;SDS011;65902;51.452;7.198;2023-04-29T04:21:09;35.88;;;17.20;;
76962;SDS011;65902;51.452;7.198;2023-04-29T04:23:13;33.20;;;17.58;;
76962;SDS011;65902;51.452;7.198;2023-04-29T04:24:14;45.50;;;21.27;;
76962;SDS011;65902;51.452;7.198;2023-04-29T04:25:17;33.40;;;18.73;;
76962;SDS011;65902;51.452;7.198;2023-04-29T04:26:20;35.88;;;18.23;;
76962;SDS011;65902;51.452;7.198;2023-04-29T04:27:23;37.05;;;20.85;;
76962;SDS011;65902;51.452;7.198;2023-04-29T04:28:23;36.15;;;18.88;;
76962;SDS011;65902;51.452;7.198;2023-04-29T04:29:26;37.72;;;20.42;;
76962;SDS011;65902;51.452;7.198;2023-04-29T04:30:27;36.05;;;19.67;;
76962;SDS011;65902;51.452;7.198;2023-04-29T04:31:30;43.60;;;19.75;;
76962;SDS011;65902;51.452;7.198;2023-04-29T04:32:31;36.55;;;20.98;;
76962;SDS011;65902;51.452;7.198;2023-04-29T04:33:34;38.95;;;21.45;;
76962;SDS011;65902;51.452;7.198;2023-04-29T04:34:35;42.22;;;19.42;;
76962;SDS011;65902;51.452;7.198;2023-04-29T04:35:36;45.13;;;20.75;;
76962;SDS011;65902;51.452;7.198;2023-04-29T04:36:37;37.03;;;21.80;;
76962;SDS011;65902;51.452;7.198;2023-04-29T04:37:40;41.08;;;21.67;;
76962;SDS011;65902;51.452;7.198;2023-04-29T04:38:46;40.00;;;19.77;;
76962;SDS011;65902;51.452;7.198;2023-04-29T04:39:47;37.53;;;20.45;;
76962;SDS011;65902;51.452;7.198;2023-04-29T04:40:47;41.00;;;19.73;;
76962;SDS011;65902;51.452;7.198;2023-04-29T04:41:48;37.53;;;20.27;;
76962;SDS011;65902;51.452;7.198;2023-04-29T04:42:51;40.38;;;20.10;;
76962;SDS011;65902;51.452;7.198;2023-04-29T04:43:54;39.33;;;20.63;;
76962;SDS011;65902;51.452;7.198;2023-04-29T04:44:57;37.72;;;19.60;;
76962;SDS011;65902;51.452;7.198;2023-04-29T04:45:59;38.35;;;19.85;;
76962;SDS011;65902;51.452;7.198;2023-04-29T04:47:00;36.78;;;20.00;;
76962;SDS011;65902;51.452;7.198;2023-04-29T04:48:01;37.90;;;20.67;;
76962;SDS011;65902;51.452;7.198;2023-04-29T04:49:02;35.17;;;19.45;;
76962;SDS011;65902;51.452;7.198;2023-04-29T04:50:02;36.47;;;19.70;;
76962;SDS011;65902;51.452;7.198;2023-04-29T04:51:07;40.47;;;20.33;;
76962;SDS011;65902;51.452;7.198;2023-04-29T04:52:08;42.05;;;23.67;;
76962;SDS011;65902;51.452;7.198;2023-04-29T04:53:09;35.75;;;20.50;;
76962;SDS011;65902;51.452;7.198;2023-04-29T04:54:10;37.40;;;18.58;;
76962;SDS011;65902;51.452;7.198;2023-04-29T04:55:11;35.67;;;20.15;;
76962;SDS011;65902;51.452;7.198;2023-04-29T04:56:12;32.17;;;19.70;;
76962;SDS011;65902;51.452;7.198;2023-04-29T04:57:18;36.55;;;21.67;;
76962;SDS011;65902;51.452;7.198;2023-04-29T04:58:18;39.70;;;22.55;;
76962;SDS011;65902;51.452;7.198;2023-04-29T04:59:19;33.63;;;20.05;;
76962;SDS011;65902;51.452;7.198;2023-04-29T05:00:25;42.28;;;19.63;;
76962;SDS011;65902;51.452;7.198;2023-04-29T05:01:25;38.05;;;19.35;;
76962;SDS011;65902;51.452;7.198;2023-04-29T05:02:26;35.97;;;20.85;;
76962;SDS011;65902;51.452;7.198;2023-04-29T05:03:27;36.92;;;20.25;;
76962;SDS011;65902;51.452;7.198;2023-04-29T05:04:28;35.80;;;19.77;;
76962;SDS011;65902;51.452;7.198;2023-04-29T05:05:33;35.80;;;19.60;;
76962;SDS011;65902;51.452;7.198;2023-04-29T05:06:34;38.28;;;20.13;;
76962;SDS011;65902;51.452;7.198;2023-04-29T05:07:35;36.00;;;20.08;;
76962;SDS011;65902;51.452;7.198;2023-04-29T05:08:36;35.95;;;20.13;;
76962;SDS011;65902;51.452;7.198;2023-04-29T05:09:42;37.75;;;19.80;;
76962;SDS011;65902;51.452;7.198;2023-04-29T05:10:43;37.20;;;18.67;;
76962;SDS011;65902;51.452;7.198;2023-04-29T05:11:43;36.50;;;21.48;;
76962;SDS011;65902;51.452;7.198;2023-04-29T05:12:46;31.73;;;17.00;;
76962;SDS011;65902;51.452;7.198;2023-04-29T05:13:49;38.50;;;19.00;;
76962;SDS011;65902;51.452;7.198;2023-04-29T05:14:56;37.17;;;20.45;;
76962;SDS011;65902;51.452;7.198;2023-04-29T05:16:01;36.50;;;19.42;;
76962;SDS011;65902;51.452;7.198;2023-04-29T05:17:06;41.80;;;19.73;;
76962;SDS011;65902;51.452;7.198;2023-04-29T05:18:11;35.15;;;20.30;;
76962;SDS011;65902;51.452;7.198;2023-04-29T05:19:16;32.95;;;19.08;;
76962;SDS011;65902;51.452;7.198;2023-04-29T05:20:20;36.10;;;19.17;;
76962;SDS011;65902;51.452;7.198;2023-04-29T05:21:20;34.13;;;19.80;;
76962;SDS011;65902;51.452;7.198;2023-04-29T05:22:21;36.85;;;18.67;;
76962;SDS011;65902;51.452;7.198;2023-04-29T05:23:22;37.38;;;18.95;;
76962;SDS011;65902;51.452;7.198;2023-04-29T05:24:25;36.70;;;21.63;;
76962;SDS011;65902;51.452;7.198;2023-04-29T05:25:29;49.00;;;27.13;;
76962;SDS011;65902;51.452;7.198;2023-04-29T05:26:29;39.40;;;21.98;;
76962;SDS011;65902;51.452;7.198;2023-04-29T05:27:30;47.22;;;23.15;;
76962;SDS011;65902;51.452;7.198;2023-04-29T05:28:31;39.70;;;20.45;;
76962;SDS011;65902;51.452;7.198;2023-04-29T05:29:34;38.25;;;20.67;;
76962;SDS011;65902;51.452;7.198;2023-04-29T05:30:35;35.97;;;20.70;;
76962;SDS011;65902;51.452;7.198;2023-04-29T05:31:37;35.10;;;18.38;;
76962;SDS011;65902;51.452;7.198;2023-04-29T05:32:40;35.30;;;21.55;;
76962;SDS011;65902;51.452;7.198;2023-04-29T05:33:43;34.33;;;21.23;;
76962;SDS011;65902;51.452;7.198;2023-04-29T05:34:47;36.17;;;21.13;;
76962;SDS011;65902;51.452;7.198;2023-04-29T05:35:48;48.40;;;25.45;;
76962;SDS011;65902;51.452;7.198;2023-04-29T05:36:51;35.53;;;20.63;;
76962;SDS011;65902;51.452;7.198;2023-04-29T05:38:52;31.63;;;20.35;;
76962;SDS011;65902;51.452;7.198;2023-04-29T05:39:53;38.55;;;20.08;;
76962;SDS011;65902;51.452;7.198;2023-04-29T05:40:54;35.85;;;21.50;;
76962;SDS011;65902;51.452;7.198;2023-04-29T05:41:55;35.58;;;20.08;;
76962;SDS011;65902;51.452;7.198;2023-04-29T05:42:56;38.08;;;22.63;;
76962;SDS011;65902;51.452;7.198;2023-04-29T05:43:59;36.47;;;20.40;;
76962;SDS011;65902;51.452;7.198;2023-04-29T05:45:00;36.45;;;18.92;;
76962;SDS011;65902;51.452;7.198;2023-04-29T05:46:05;34.53;;;20.85;;
76962;SDS011;65902;51.452;7.198;2023-04-29T05:47:09;34.70;;;18.85;;
76962;SDS011;65902;51.452;7.198;2023-04-29T05:48:10;34.92;;;19.10;;
76962;SDS011;65902;51.452;7.198;2023-04-29T05:49:10;32.53;;;20.30;;
76962;SDS011;65902;51.452;7.198;2023-04-29T05:50:11;35.88;;;23.02;;
76962;SDS011;65902;51.452;7.198;2023-04-29T05:51:12;37.25;;;20.80;;
76962;SDS011;65902;51.452;7.198;2023-04-29T05:52:15;35.63;;;19.75;;
76962;SDS011;65902;51.452;7.198;2023-04-29T05:54:22;34.25;;;17.67;;
76962;SDS011;65902;51.452;7.198;2023-04-29T05:55:25;34.03;;;18.27;;
76962;SDS011;65902;51.452;7.198;2023-04-29T05:56:26;35.47;;;22.92;;
76962;SDS011;65902;51.452;7.198;2023-04-29T05:57:27;33.78;;;19.77;;
76962;SDS011;65902;51.452;7.198;2023-04-29T05:58:28;35.83;;;21.05;;
76962;SDS011;65902;51.452;7.198;2023-04-29T05:59:29;38.20;;;20.33;;
76962;SDS011;65902;51.452;7.198;2023-04-29T06:00:32;34.72;;;18.60;;
76962;SDS011;65902;51.452;7.198;2023-04-29T06:01:33;33.08;;;19.27;;
76962;SDS011;65902;51.452;7.198;2023-04-29T06:02:34;34.25;;;18.45;;
76962;SDS011;65902;51.452;7.198;2023-04-29T06:03:35;32.67;;;18.67;;
76962;SDS011;65902;51.452;7.198;2023-04-29T06:04:36;33.92;;;19.73;;
76962;SDS011;65902;51.452;7.198;2023-04-29T06:05:37;31.23;;;18.10;;
76962;SDS011;65902;51.452;7.198;2023-04-29T06:06:38;33.42;;;19.63;;
76962;SDS011;65902;51.452;7.198;2023-04-29T06:07:41;35.85;;;19.17;;
76962;SDS011;65902;51.452;7.198;2023-04-29T06:08:47;34.78;;;21.75;;
76962;SDS011;65902;51.452;7.198;2023-04-29T06:09:48;33.00;;;22.48;;
76962;SDS011;65902;51.452;7.198;2023-04-29T06:10:50;32.08;;;19.77;;
76962;SDS011;65902;51.452;7.198;2023-04-29T06:11:51;31.60;;;19.58;;
76962;SDS011;65902;51.452;7.198;2023-04-29T06:12:54;31.00;;;19.20;;
76962;SDS011;65902;51.452;7.198;2023-04-29T06:13:57;33.65;;;19.02;;
76962;SDS011;65902;51.452;7.198;2023-04-29T06:14:58;31.23;;;18.75;;
76962;SDS011;65902;51.452;7.198;2023-04-29T06:15:59;34.08;;;19.73;;
76962;SDS011;65902;51.452;7.198;2023-04-29T06:17:04;40.25;;;20.67;;
76962;SDS011;65902;51.452;7.198;2023-04-29T06:18:07;33.25;;;20.20;;
76962;SDS011;65902;51.452;7.198;2023-04-29T06:19:07;37.08;;;23.55;;
76962;SDS011;65902;51.452;7.198;2023-04-29T06:20:08;37.28;;;23.48;;
76962;SDS011;65902;51.452;7.198;2023-04-29T06:21:11;30.98;;;19.98;;
76962;SDS011;65902;51.452;7.198;2023-04-29T06:22:11;34.40;;;18.60;;
76962;SDS011;65902;51.452;7.198;2023-04-29T06:23:12;32.42;;;19.23;;
76962;SDS011;65902;51.452;7.198;2023-04-29T06:24:15;35.22;;;19.60;;
76962;SDS011;65902;51.452;7.198;2023-04-29T06:25:15;29.75;;;18.70;;
76962;SDS011;65902;51.452;7.198;2023-04-29T06:26:16;33.58;;;19.85;;
76962;SDS011;65902;51.452;7.198;2023-04-29T06:27:17;30.83;;;18.77;;
76962;SDS011;65902;51.452;7.198;2023-04-29T06:28:18;28.75;;;16.83;;
76962;SDS011;65902;51.452;7.198;2023-04-29T06:29:19;32.28;;;19.80;;